createdAt,value
2023-04-21T00:01:44.284Z,9.38
2023-04-21T00:04:15.316Z,10.05
2023-04-21T00:06:42.707Z,9.90
2023-04-21T00:09:11.081Z,10.02
2023-04-21T00:11:38.236Z,9.52
2023-04-21T00:14:05.536Z,10.30
2023-04-21T00:16:32.817Z,10.70
2023-04-21T00:19:00.359Z,10.15
2023-04-21T00:21:27.680Z,10.13
2023-04-21T00:23:54.867Z,10.43
2023-04-21T00:26:22.177Z,11.05
2023-04-21T00:28:49.301Z,10.27
2023-04-21T00:31:16.684Z,11.32
2023-04-21T00:33:44.055Z,10.27
2023-04-21T00:36:11.205Z,9.63
2023-04-21T00:38:38.441Z,10.48
2023-04-21T00:41:06.053Z,9.95
2023-04-21T00:43:33.222Z,11.25
2023-04-21T00:46:00.497Z,11.23
2023-04-21T00:48:27.627Z,9.25
2023-04-21T00:50:54.868Z,9.02
2023-04-21T00:53:22.454Z,10.48
2023-04-21T00:55:51.260Z,7.40
2023-04-21T00:58:18.398Z,11.60
2023-04-21T01:00:46.644Z,10.70
2023-04-21T01:03:14.202Z,10.50
2023-04-21T01:05:42.509Z,11.50
2023-04-21T01:08:09.650Z,9.55
2023-04-21T01:10:36.872Z,12.45
2023-04-21T01:13:04.093Z,11.55
2023-04-21T01:15:31.600Z,12.95
2023-04-21T01:17:58.816Z,12.30
2023-04-21T01:20:26.543Z,12.35
2023-04-21T01:22:53.722Z,10.73
2023-04-21T01:25:23.450Z,12.35
2023-04-21T01:27:52.064Z,12.32
2023-04-21T01:30:19.225Z,12.93
2023-04-21T01:32:46.431Z,12.30
2023-04-21T01:35:13.566Z,12.88
2023-04-21T01:37:40.854Z,13.07
2023-04-21T01:40:09.452Z,13.75
2023-04-21T01:42:38.201Z,13.55
2023-04-21T01:45:05.941Z,12.40
2023-04-21T01:47:33.356Z,13.15
2023-04-21T01:50:00.638Z,12.82
2023-04-21T01:52:27.871Z,13.25
2023-04-21T01:55:15.963Z,12.40
2023-04-21T01:57:43.303Z,13.68
2023-04-21T02:00:10.781Z,12.20
2023-04-21T02:02:39.077Z,14.52
2023-04-21T02:05:06.482Z,13.68
2023-04-21T02:07:33.633Z,14.95
2023-04-21T02:10:03.239Z,13.35
2023-04-21T02:12:30.911Z,14.43
2023-04-21T02:14:58.052Z,13.32
2023-04-21T02:17:25.221Z,14.82
2023-04-21T02:19:52.408Z,15.70
2023-04-21T02:22:19.780Z,14.27
2023-04-21T02:24:46.934Z,14.23
2023-04-21T02:27:14.083Z,14.60
2023-04-21T02:29:41.201Z,14.70
2023-04-21T02:32:22.125Z,14.77
2023-04-21T02:34:52.828Z,14.68
2023-04-21T02:37:19.977Z,15.32
2023-04-21T02:39:47.271Z,14.55
2023-04-21T02:42:14.526Z,14.52
2023-04-21T02:44:42.984Z,15.27
2023-04-21T02:47:10.482Z,15.02
2023-04-21T02:49:41.186Z,14.50
2023-04-21T02:52:08.379Z,15.68
2023-04-21T02:54:35.567Z,15.02
2023-04-21T02:57:02.847Z,14.77
2023-04-21T02:59:29.979Z,15.52
2023-04-21T03:01:57.086Z,14.75
2023-04-21T03:04:25.761Z,14.52
2023-04-21T03:06:53.634Z,15.82
2023-04-21T03:09:21.081Z,14.15
2023-04-21T03:11:48.249Z,15.23
2023-04-21T03:14:15.619Z,15.30
2023-04-21T03:16:42.929Z,16.10
2023-04-21T03:19:10.180Z,16.52
2023-04-21T03:21:38.998Z,15.40
2023-04-21T03:24:07.272Z,15.10
2023-04-21T03:26:34.521Z,15.43
2023-04-21T03:29:01.716Z,15.25
2023-04-21T03:31:29.163Z,14.65
2023-04-21T03:33:56.501Z,15.43
2023-04-21T03:36:23.814Z,15.45
2023-04-21T03:38:51.166Z,16.30
2023-04-21T03:41:18.402Z,15.45
2023-04-21T03:43:45.711Z,10.65
2023-04-21T03:46:19.484Z,14.85
2023-04-21T03:48:47.211Z,17.38
2023-04-21T03:51:14.619Z,15.20
2023-04-21T03:53:42.101Z,15.38
2023-04-21T03:56:09.387Z,14.73
2023-04-21T03:58:36.996Z,15.13
2023-04-21T04:01:06.630Z,8.40
2023-04-21T04:03:34.139Z,15.10
2023-04-21T04:06:04.015Z,14.60
2023-04-21T04:08:31.442Z,10.50
2023-04-21T04:10:58.724Z,14.73
2023-04-21T04:13:26.731Z,14.68
2023-04-21T04:15:54.156Z,13.85
2023-04-21T04:18:21.918Z,14.40
2023-04-21T04:20:49.111Z,15.20
2023-04-21T04:23:16.336Z,14.68
2023-04-21T04:25:43.855Z,12.63
2023-04-21T04:28:12.632Z,12.40
2023-04-21T04:30:39.795Z,14.52
2023-04-21T04:33:06.922Z,12.85
2023-04-21T04:35:35.009Z,14.35
2023-04-21T04:38:02.349Z,11.32
2023-04-21T04:40:30.308Z,13.20
2023-04-21T04:42:57.422Z,12.82
2023-04-21T04:45:26.269Z,13.98
2023-04-21T04:47:53.471Z,13.77
2023-04-21T04:50:20.821Z,15.38
2023-04-21T04:52:49.088Z,14.20
2023-04-21T04:55:17.005Z,16.08
2023-04-21T04:57:44.206Z,13.85
2023-04-21T05:00:11.643Z,16.10
2023-04-21T05:02:39.644Z,14.68
2023-04-21T05:05:07.784Z,15.82
2023-04-21T05:07:35.524Z,16.73
2023-04-21T05:10:04.493Z,16.60
2023-04-21T05:14:59.650Z,15.40
2023-04-21T05:17:27.356Z,13.52
2023-04-21T05:19:54.546Z,14.65
2023-04-21T05:22:21.669Z,16.48
2023-04-21T05:24:51.210Z,15.52
2023-04-21T05:27:18.431Z,17.45
2023-04-21T05:29:45.714Z,15.65
2023-04-21T05:32:12.960Z,16.35
2023-04-21T05:34:40.088Z,13.50
2023-04-21T05:37:07.241Z,15.60
2023-04-21T05:39:34.505Z,15.05
2023-04-21T05:42:02.449Z,15.65
2023-04-21T05:44:29.606Z,12.40
2023-04-21T05:46:56.742Z,15.98
2023-04-21T05:49:24.121Z,17.25
2023-04-21T05:51:51.431Z,16.05
2023-04-21T05:54:18.935Z,17.63
2023-04-21T05:56:47.938Z,16.30
2023-04-21T06:01:42.127Z,14.57
2023-04-21T06:04:09.519Z,17.17
2023-04-21T06:06:36.952Z,14.80
2023-04-21T06:09:05.461Z,12.73
2023-04-21T06:11:33.465Z,17.42
2023-04-21T06:14:01.806Z,18.95
2023-04-21T06:16:32.238Z,17.67
2023-04-21T06:18:59.555Z,17.63
2023-04-21T06:21:26.762Z,19.27
2023-04-21T06:23:53.877Z,17.38
2023-04-21T06:26:21.137Z,18.35
2023-04-21T06:28:48.479Z,15.35
2023-04-21T06:31:15.829Z,19.38
2023-04-21T06:33:43.270Z,18.38
2023-04-21T06:36:10.630Z,18.83
2023-04-21T06:38:40.005Z,16.42
2023-04-21T06:41:07.486Z,15.35
2023-04-21T06:43:34.628Z,19.13
2023-04-21T06:46:01.760Z,17.05
2023-04-21T06:48:30.183Z,18.95
2023-04-21T06:50:57.640Z,17.05
2023-04-21T06:53:24.994Z,18.17
2023-04-21T06:55:53.448Z,17.63
2023-04-21T06:58:21.469Z,17.15
2023-04-21T07:00:48.872Z,16.75
2023-04-21T07:03:16.293Z,17.48
2023-04-21T07:05:43.685Z,18.23
2023-04-21T07:08:10.773Z,19.27
2023-04-21T07:10:37.997Z,16.10
2023-04-21T07:13:05.160Z,16.02
2023-04-21T07:15:32.451Z,15.73
2023-04-21T07:17:59.905Z,17.63
2023-04-21T07:20:27.143Z,17.08
2023-04-21T07:22:54.434Z,16.15
2023-04-21T07:25:21.581Z,15.38
2023-04-21T07:27:48.786Z,18.02
2023-04-21T07:30:16.245Z,16.52
2023-04-21T07:32:43.791Z,16.08
2023-04-21T07:35:11.128Z,16.63
2023-04-21T07:37:40.067Z,15.95
2023-04-21T07:40:08.604Z,17.30
2023-04-21T07:45:03.075Z,14.98
2023-04-21T07:47:30.527Z,16.27
2023-04-21T07:49:57.822Z,17.33
2023-04-21T07:52:25.032Z,18.23
2023-04-21T07:54:52.279Z,16.98
2023-04-21T07:57:19.381Z,16.40
2023-04-21T07:59:46.533Z,14.10
2023-04-21T08:02:13.726Z,17.55
2023-04-21T08:04:41.207Z,18.02
2023-04-21T08:07:10.237Z,16.55
2023-04-21T08:09:37.536Z,16.98
2023-04-21T08:12:04.919Z,17.27
2023-04-21T08:14:32.476Z,10.23
2023-04-21T08:17:00.037Z,17.15
2023-04-21T08:19:27.581Z,16.50
2023-04-21T08:21:54.777Z,14.88
2023-04-21T08:24:22.199Z,16.98
2023-04-21T08:26:49.530Z,13.48
2023-04-21T08:29:16.755Z,16.00
2023-04-21T08:31:44.017Z,14.18
2023-04-21T08:34:11.276Z,17.02
2023-04-21T08:36:38.607Z,12.65
2023-04-21T08:39:05.806Z,16.00
2023-04-21T08:41:32.991Z,15.90
2023-04-21T08:44:00.216Z,15.75
2023-04-21T08:46:28.893Z,15.82
2023-04-21T08:48:56.314Z,13.68
2023-04-21T08:51:24.577Z,15.95
2023-04-21T08:53:52.191Z,17.13
2023-04-21T08:56:19.558Z,16.45
2023-04-21T08:58:46.931Z,14.75
2023-04-21T09:01:15.603Z,14.95
2023-04-21T09:03:43.026Z,14.63
2023-04-21T09:06:12.779Z,13.88
2023-04-21T09:08:43.238Z,13.25
2023-04-21T09:11:14.237Z,14.60
2023-04-21T09:13:43.259Z,13.68
2023-04-21T09:16:18.409Z,11.57
2023-04-21T09:18:46.309Z,12.65
2023-04-21T09:21:13.494Z,13.23
2023-04-21T09:23:48.167Z,13.82
2023-04-21T09:28:47.461Z,12.52
2023-04-21T09:31:25.363Z,11.80
2023-04-21T09:34:00.375Z,14.18
2023-04-21T09:36:29.650Z,13.00
2023-04-21T09:41:32.057Z,12.10
2023-04-21T09:44:01.922Z,13.52
2023-04-21T09:46:30.732Z,11.27
2023-04-21T09:49:01.373Z,13.38
2023-04-21T09:51:49.073Z,12.38
2023-04-21T09:56:53.752Z,14.40
2023-04-21T09:59:26.010Z,13.45
2023-04-21T10:01:55.113Z,12.65
2023-04-21T10:04:24.002Z,14.82
2023-04-21T10:06:52.395Z,14.20
2023-04-21T10:09:22.043Z,14.30
2023-04-21T10:11:49.233Z,12.45
2023-04-21T10:14:16.588Z,11.57
2023-04-21T10:16:44.023Z,11.65
2023-04-21T10:19:36.180Z,12.23
2023-04-21T10:22:03.648Z,11.25
2023-04-21T10:24:31.077Z,10.95
2023-04-21T10:26:59.714Z,11.38
2023-04-21T10:29:40.151Z,9.63
2023-04-21T10:32:31.849Z,9.40
2023-04-21T10:34:59.047Z,8.82
2023-04-21T10:37:26.237Z,9.27
2023-04-21T10:39:54.765Z,10.80
2023-04-21T10:44:59.744Z,10.63
2023-04-21T10:47:33.567Z,10.90
2023-04-21T10:50:11.245Z,11.52
2023-04-21T10:52:39.057Z,8.40
2023-04-21T10:55:07.706Z,11.88
2023-04-21T10:57:37.166Z,11.57
2023-04-21T11:00:09.001Z,12.95
2023-04-21T11:02:39.178Z,10.93
2023-04-21T11:05:09.707Z,14.45
2023-04-21T11:10:05.513Z,10.80
2023-04-21T11:17:27.004Z,12.32
2023-04-21T11:19:55.348Z,12.95
2023-04-21T11:22:26.427Z,11.90
2023-04-21T11:24:57.987Z,12.18
2023-04-21T11:27:27.291Z,11.88
2023-04-21T11:29:54.732Z,13.20
2023-04-21T11:32:22.033Z,13.32
2023-04-21T11:34:49.204Z,13.95
2023-04-21T11:37:28.444Z,13.40
2023-04-21T11:40:01.715Z,12.90
2023-04-21T11:42:29.382Z,13.38
2023-04-21T11:44:57.159Z,9.35
2023-04-21T11:47:28.150Z,13.20
2023-04-21T11:49:56.856Z,10.18
2023-04-21T11:52:24.467Z,9.85
2023-04-21T11:55:02.087Z,9.60
2023-04-21T11:57:30.237Z,9.05
2023-04-21T12:00:06.526Z,9.88
2023-04-21T12:02:34.393Z,9.27
2023-04-21T12:05:20.030Z,11.35
2023-04-21T12:07:52.353Z,10.40
2023-04-21T12:10:42.326Z,12.05
2023-04-21T12:13:09.908Z,13.23
2023-04-21T12:15:38.965Z,13.27
2023-04-21T12:18:09.122Z,13.35
2023-04-21T12:20:36.370Z,14.73
2023-04-21T12:23:03.603Z,13.85
2023-04-21T12:25:30.752Z,12.43
2023-04-21T12:28:00.741Z,12.82
2023-04-21T12:30:28.118Z,9.30
2023-04-21T12:32:55.863Z,11.98
2023-04-21T12:35:23.472Z,10.13
2023-04-21T12:37:51.061Z,11.00
2023-04-21T12:40:18.419Z,11.43
2023-04-21T12:42:45.848Z,10.60
2023-04-21T12:45:13.686Z,10.60
2023-04-21T12:47:43.506Z,10.98
2023-04-21T12:50:12.627Z,11.60
2023-04-21T12:52:39.755Z,10.32
2023-04-21T12:55:07.388Z,10.25
2023-04-21T12:57:34.578Z,9.05
2023-04-21T13:00:01.759Z,10.70
2023-04-21T13:02:32.323Z,9.27
2023-04-21T13:04:59.674Z,10.95
2023-04-21T13:07:31.481Z,10.05
2023-04-21T13:09:58.716Z,11.30
2023-04-21T13:12:25.920Z,11.45
2023-04-21T13:14:53.066Z,11.95
2023-04-21T13:17:20.508Z,12.82
2023-04-21T13:19:47.870Z,12.40
2023-04-21T13:22:15.273Z,12.00
2023-04-21T13:24:42.439Z,12.88
2023-04-21T13:27:09.710Z,11.90
2023-04-21T13:29:36.942Z,14.57
2023-04-21T13:32:05.534Z,12.65
2023-04-21T13:34:33.706Z,13.98
2023-04-21T13:39:28.271Z,13.40
2023-04-21T13:41:56.455Z,13.57
2023-04-21T13:44:23.910Z,11.00
2023-04-21T13:46:52.956Z,13.98
2023-04-21T13:49:21.054Z,12.88
2023-04-21T13:51:48.271Z,12.23
2023-04-21T13:54:15.605Z,14.07
2023-04-21T13:56:43.202Z,13.50
2023-04-21T13:59:11.009Z,11.77
2023-04-21T14:01:38.433Z,13.98
2023-04-21T14:04:05.897Z,12.68
2023-04-21T14:06:33.274Z,14.35
2023-04-21T14:09:00.856Z,12.88
2023-04-21T14:11:28.101Z,13.93
2023-04-21T14:14:08.080Z,13.85
2023-04-21T14:16:37.339Z,12.43
2023-04-21T14:19:04.574Z,10.35
2023-04-21T14:21:32.863Z,10.85
2023-04-21T14:24:00.253Z,12.88
2023-04-21T14:26:27.621Z,12.88
2023-04-21T14:28:55.176Z,12.23
2023-04-21T14:31:22.631Z,10.32
2023-04-21T14:33:50.219Z,8.65
2023-04-21T14:36:21.258Z,10.82
2023-04-21T14:38:48.522Z,12.85
2023-04-21T14:41:15.754Z,12.00
2023-04-21T14:43:42.934Z,10.45
2023-04-21T14:46:10.458Z,12.05
2023-04-21T14:48:37.736Z,13.18
2023-04-21T14:51:09.739Z,10.73
2023-04-21T14:53:37.049Z,12.27
2023-04-21T14:56:04.385Z,12.82
2023-04-21T14:58:50.426Z,12.60
2023-04-21T15:04:00.249Z,11.93
2023-04-21T15:06:28.526Z,12.00
2023-04-21T15:14:19.752Z,9.90
2023-04-21T15:16:47.188Z,9.60
2023-04-21T15:19:14.387Z,10.10
2023-04-21T15:21:41.699Z,9.45
2023-04-21T15:24:10.269Z,10.38
2023-04-21T15:26:37.707Z,10.45
2023-04-21T15:29:05.531Z,11.00
2023-04-21T15:31:32.756Z,9.95
2023-04-21T15:34:00.040Z,10.65
2023-04-21T15:36:27.551Z,9.02
2023-04-21T15:38:54.725Z,12.02
2023-04-21T15:41:22.785Z,9.63
2023-04-21T15:43:49.956Z,10.48
2023-04-21T15:46:17.148Z,11.13
2023-04-21T15:48:44.404Z,12.20
2023-04-21T15:51:11.734Z,11.02
2023-04-21T15:53:43.917Z,10.65
2023-04-21T15:56:14.165Z,11.48
2023-04-21T15:58:41.299Z,10.75
2023-04-21T16:01:08.571Z,9.95
2023-04-21T16:03:36.082Z,11.23
2023-04-21T16:06:03.854Z,10.88
2023-04-21T16:08:33.133Z,12.60
2023-04-21T16:11:00.811Z,10.13
2023-04-21T16:13:28.316Z,9.63
2023-04-21T16:15:55.658Z,10.07
2023-04-21T16:18:23.173Z,9.95
2023-04-21T16:20:50.714Z,11.52
2023-04-21T16:23:18.045Z,11.30
2023-04-21T16:25:45.806Z,11.93
2023-04-21T16:30:54.289Z,11.30
2023-04-21T16:33:21.596Z,10.40
2023-04-21T16:35:49.445Z,8.93
2023-04-21T16:38:17.920Z,9.00
2023-04-21T16:43:12.767Z,10.23
2023-04-21T16:45:40.051Z,9.52
2023-04-21T16:48:07.440Z,9.93
2023-04-21T16:50:34.984Z,11.15
2023-04-21T16:53:02.180Z,11.77
2023-04-21T16:55:29.423Z,10.93
2023-04-21T16:57:56.587Z,10.40
2023-04-21T17:00:23.778Z,8.43
2023-04-21T17:02:51.141Z,9.93
2023-04-21T17:05:18.311Z,9.88
2023-04-21T17:07:45.496Z,10.80
2023-04-21T17:10:12.827Z,10.60
2023-04-21T17:12:40.133Z,10.60
2023-04-21T17:15:07.640Z,10.77
2023-04-21T17:17:41.290Z,10.80
2023-04-21T17:20:10.266Z,11.73
2023-04-21T17:22:40.094Z,11.43
2023-04-21T17:27:50.437Z,11.80
2023-04-21T17:30:19.000Z,11.73
2023-04-21T17:32:46.895Z,12.05
2023-04-21T17:35:14.121Z,11.93
2023-04-21T17:41:02.519Z,12.07
2023-04-21T17:43:29.917Z,11.98
2023-04-21T17:45:57.783Z,11.90
2023-04-21T17:48:25.134Z,11.93
2023-04-21T17:50:53.614Z,11.65
2023-04-21T17:56:02.013Z,11.15
2023-04-21T17:58:29.576Z,12.25
2023-04-21T18:00:57.115Z,12.55
2023-04-21T18:03:25.071Z,12.45
2023-04-21T18:05:52.475Z,12.82
2023-04-21T18:08:20.517Z,11.57
2023-04-21T18:10:48.249Z,13.07
2023-04-21T18:13:15.632Z,3.90
2023-04-21T18:15:42.975Z,2.20
2023-04-21T18:18:10.527Z,1.30
2023-04-21T18:20:38.114Z,2.72
2023-04-21T18:23:05.450Z,3.83
2023-04-21T18:25:41.989Z,1.58
2023-04-21T18:28:11.481Z,1.00
2023-04-21T18:35:34.036Z,2.30
2023-04-21T18:38:01.528Z,1.48
2023-04-21T18:40:28.768Z,1.52
2023-04-21T18:42:56.092Z,0.93
2023-04-21T18:45:23.353Z,1.10
2023-04-21T18:47:50.560Z,1.00
2023-04-21T18:50:18.053Z,1.42
2023-04-21T18:52:45.269Z,0.95
2023-04-21T18:55:12.479Z,1.30
2023-04-21T18:57:39.816Z,1.42
2023-04-21T19:00:07.381Z,1.63
2023-04-21T19:02:34.868Z,1.85
2023-04-21T19:05:02.358Z,1.80
2023-04-21T19:07:29.631Z,1.58
2023-04-21T19:09:56.925Z,1.50
2023-04-21T19:12:24.069Z,1.73
2023-04-21T19:14:51.867Z,1.80
2023-04-21T19:17:19.163Z,1.83
2023-04-21T19:19:46.475Z,1.80
2023-04-21T19:22:13.808Z,2.30
2023-04-21T19:24:41.013Z,2.90
2023-04-21T19:27:08.227Z,2.80
2023-04-21T19:29:36.950Z,3.00
2023-04-21T19:34:31.435Z,3.60
2023-04-21T19:36:58.572Z,3.83
2023-04-21T19:39:25.914Z,4.38
2023-04-21T19:41:53.067Z,4.55
2023-04-21T19:44:20.218Z,4.45
2023-04-21T19:46:47.409Z,4.35
2023-04-21T19:49:14.669Z,4.68
2023-04-21T19:51:41.883Z,4.00
2023-04-21T19:54:12.073Z,4.35
2023-04-21T19:56:39.766Z,4.10
2023-04-21T19:59:07.189Z,4.60
2023-04-21T20:01:35.120Z,4.05
2023-04-21T20:04:03.506Z,4.90
2023-04-21T20:06:32.084Z,4.90
2023-04-21T20:08:59.218Z,4.57
2023-04-21T20:11:28.945Z,5.22
2023-04-21T20:13:56.522Z,4.68
2023-04-21T20:16:26.487Z,5.18
2023-04-21T20:18:55.444Z,4.97
2023-04-21T20:21:22.800Z,6.75
2023-04-21T20:23:50.217Z,6.18
2023-04-21T20:26:17.460Z,6.50
2023-04-21T20:28:44.705Z,5.88
2023-04-21T20:31:11.965Z,5.93
2023-04-21T20:33:39.133Z,6.10
2023-04-21T20:36:09.948Z,5.90
2023-04-21T20:38:38.437Z,6.38
2023-04-21T20:41:05.629Z,5.85
2023-04-21T20:43:33.220Z,5.63
2023-04-21T20:46:04.289Z,6.15
2023-04-21T20:48:31.671Z,6.30
2023-04-21T20:50:58.951Z,5.70
2023-04-21T20:53:26.232Z,5.40
2023-04-21T20:55:53.479Z,4.38
2023-04-21T20:58:20.877Z,4.00
2023-04-21T21:00:48.081Z,3.78
2023-04-21T21:03:15.707Z,4.00
2023-04-21T21:05:43.433Z,3.53
2023-04-21T21:08:10.659Z,3.63
2023-04-21T21:10:37.845Z,3.90
2023-04-21T21:13:04.984Z,3.63
2023-04-21T21:15:32.359Z,3.17
2023-04-21T21:17:59.867Z,4.10
2023-04-21T21:20:27.146Z,4.28
2023-04-21T21:22:54.305Z,4.10
2023-04-21T21:25:21.749Z,3.92
2023-04-21T21:27:49.086Z,3.67
2023-04-21T21:30:16.212Z,3.35
2023-04-21T21:32:43.478Z,3.42
2023-04-21T21:35:11.810Z,4.00
2023-04-21T21:37:39.401Z,4.20
2023-04-21T21:40:07.236Z,4.00
2023-04-21T21:42:34.488Z,3.88
2023-04-21T21:45:01.572Z,4.30
2023-04-21T21:47:28.841Z,4.13
2023-04-21T21:49:58.844Z,3.90
2023-04-21T21:52:28.424Z,3.92
2023-04-21T21:54:56.851Z,3.85
2023-04-21T21:57:24.401Z,4.13
2023-04-21T21:59:51.626Z,3.70
2023-04-21T22:02:19.010Z,4.90
2023-04-21T22:04:46.439Z,5.40
2023-04-21T22:07:14.008Z,5.03
2023-04-21T22:09:41.524Z,5.88
2023-04-21T22:12:08.933Z,6.53
2023-04-21T22:14:36.323Z,6.05
2023-04-21T22:17:03.540Z,6.38
2023-04-21T22:19:31.141Z,6.38
2023-04-21T22:21:58.399Z,7.18
2023-04-21T22:24:25.596Z,7.07
2023-04-21T22:26:52.746Z,6.78
2023-04-21T22:29:19.941Z,7.00
2023-04-21T22:31:47.231Z,7.55
2023-04-21T22:34:16.655Z,7.32
2023-04-21T22:36:43.855Z,6.57
2023-04-21T22:39:11.128Z,7.18
2023-04-21T22:41:39.150Z,7.18
2023-04-21T22:44:06.275Z,7.13
2023-04-21T22:46:33.807Z,7.45
2023-04-21T22:49:05.196Z,7.60
2023-04-21T22:51:32.783Z,7.68
2023-04-21T22:54:00.604Z,7.70
2023-04-21T22:56:27.802Z,7.15
2023-04-21T22:58:55.108Z,7.57
2023-04-21T23:01:22.289Z,7.28
2023-04-21T23:03:49.852Z,7.43
2023-04-21T23:06:17.212Z,7.93
2023-04-21T23:08:44.333Z,7.28
2023-04-21T23:11:11.492Z,7.07
2023-04-21T23:13:39.785Z,6.40
2023-04-21T23:16:07.170Z,7.43
2023-04-21T23:18:34.509Z,7.10
2023-04-21T23:21:01.668Z,6.63
2023-04-21T23:23:28.840Z,7.57
2023-04-21T23:25:55.993Z,7.80
2023-04-21T23:28:24.368Z,8.15
2023-04-21T23:30:51.678Z,8.00
2023-04-21T23:33:18.906Z,7.72
2023-04-21T23:35:46.092Z,7.97
2023-04-21T23:38:13.283Z,7.43
2023-04-21T23:40:41.209Z,7.45
2023-04-21T23:43:08.325Z,7.38
2023-04-21T23:45:35.534Z,8.68
2023-04-21T23:48:02.756Z,7.78
2023-04-21T23:50:29.981Z,7.75
2023-04-21T23:52:57.399Z,7.85
2023-04-21T23:55:24.500Z,7.68
2023-04-21T23:57:51.703Z,8.25
